sensor_id;sensor_type;location;lat;lon;timestamp;pressure;altitude;pressure_sealevel;temperature;humidity
61359;BME280;47228;46.762;23.598;2023-04-05T00:00:56;96968.67;;;0.42;84.36
61359;BME280;47228;46.762;23.598;2023-04-05T00:03:24;96966.90;;;0.37;84.16
61359;BME280;47228;46.762;23.598;2023-04-05T00:05:53;96968.46;;;0.30;83.89
61359;BME280;47228;46.762;23.598;2023-04-05T00:08:21;96967.45;;;0.24;84.38
61359;BME280;47228;46.762;23.598;2023-04-05T00:10:55;96969.29;;;0.21;84.40
61359;BME280;47228;46.762;23.598;2023-04-05T00:13:23;96965.44;;;0.19;84.59
61359;BME280;47228;46.762;23.598;2023-04-05T00:15:52;96964.01;;;0.20;85.01
61359;BME280;47228;46.762;23.598;2023-04-05T00:18:20;96961.81;;;0.22;85.25
61359;BME280;47228;46.762;23.598;2023-04-05T00:20:52;96963.42;;;0.26;85.26
61359;BME280;47228;46.762;23.598;2023-04-05T00:23:20;96961.89;;;0.29;85.45
61359;BME280;47228;46.762;23.598;2023-04-05T00:25:49;96959.17;;;0.30;85.05
61359;BME280;47228;46.762;23.598;2023-04-05T00:28:17;96956.84;;;0.29;84.92
61359;BME280;47228;46.762;23.598;2023-04-05T00:30:45;96957.48;;;0.28;85.19
61359;BME280;47228;46.762;23.598;2023-04-05T00:33:13;96956.45;;;0.28;85.23
61359;BME280;47228;46.762;23.598;2023-04-05T00:35:41;96953.61;;;0.30;85.33
61359;BME280;47228;46.762;23.598;2023-04-05T00:38:09;96954.08;;;0.34;85.58
61359;BME280;47228;46.762;23.598;2023-04-05T00:40:37;96959.20;;;0.35;84.80
61359;BME280;47228;46.762;23.598;2023-04-05T00:43:05;96958.86;;;0.37;84.89
61359;BME280;47228;46.762;23.598;2023-04-05T00:45:33;96955.09;;;0.40;85.00
61359;BME280;47228;46.762;23.598;2023-04-05T00:48:01;96956.75;;;0.41;84.89
61359;BME280;47228;46.762;23.598;2023-04-05T00:50:29;96955.84;;;0.40;84.83
61359;BME280;47228;46.762;23.598;2023-04-05T00:52:57;96955.61;;;0.38;84.90
61359;BME280;47228;46.762;23.598;2023-04-05T00:55:26;96956.38;;;0.40;84.92
61359;BME280;47228;46.762;23.598;2023-04-05T00:57:54;96955.27;;;0.40;84.72
61359;BME280;47228;46.762;23.598;2023-04-05T01:00:26;96957.27;;;0.41;84.58
61359;BME280;47228;46.762;23.598;2023-04-05T01:02:57;96957.31;;;0.43;84.80
61359;BME280;47228;46.762;23.598;2023-04-05T01:05:46;96956.83;;;0.46;84.96
61359;BME280;47228;46.762;23.598;2023-04-05T01:11:00;96956.19;;;0.47;84.28
61359;BME280;47228;46.762;23.598;2023-04-05T01:13:31;96957.11;;;0.45;83.80
61359;BME280;47228;46.762;23.598;2023-04-05T01:15:59;96955.88;;;0.43;83.60
61359;BME280;47228;46.762;23.598;2023-04-05T01:18:27;96952.77;;;0.43;83.76
61359;BME280;47228;46.762;23.598;2023-04-05T01:26:45;96957.55;;;0.29;82.96
61359;BME280;47228;46.762;23.598;2023-04-05T01:35:04;96963.23;;;0.20;83.76
61359;BME280;47228;46.762;23.598;2023-04-05T01:37:37;96961.75;;;0.19;83.50
61359;BME280;47228;46.762;23.598;2023-04-05T01:40:07;96959.93;;;0.17;82.98
61359;BME280;47228;46.762;23.598;2023-04-05T01:42:35;96959.42;;;0.11;82.89
61359;BME280;47228;46.762;23.598;2023-04-05T01:45:04;96959.45;;;0.10;83.74
61359;BME280;47228;46.762;23.598;2023-04-05T01:47:32;96959.52;;;0.11;83.93
61359;BME280;47228;46.762;23.598;2023-04-05T01:50:00;96957.48;;;0.11;83.90
61359;BME280;47228;46.762;23.598;2023-04-05T01:52:28;96953.73;;;0.10;84.24
61359;BME280;47228;46.762;23.598;2023-04-05T01:54:56;96951.17;;;0.13;84.56
61359;BME280;47228;46.762;23.598;2023-04-05T01:57:24;96950.12;;;0.16;84.29
61359;BME280;47228;46.762;23.598;2023-04-05T01:59:52;96952.20;;;0.18;84.64
61359;BME280;47228;46.762;23.598;2023-04-05T02:02:20;96952.02;;;0.19;84.79
61359;BME280;47228;46.762;23.598;2023-04-05T02:04:48;96953.19;;;0.20;84.40
61359;BME280;47228;46.762;23.598;2023-04-05T02:07:16;96950.64;;;0.17;83.94
61359;BME280;47228;46.762;23.598;2023-04-05T02:09:43;96948.66;;;0.16;84.22
61359;BME280;47228;46.762;23.598;2023-04-05T02:12:11;96950.54;;;0.18;84.55
61359;BME280;47228;46.762;23.598;2023-04-05T02:14:40;96949.43;;;0.21;84.32
61359;BME280;47228;46.762;23.598;2023-04-05T02:17:08;96950.05;;;0.22;84.36
61359;BME280;47228;46.762;23.598;2023-04-05T02:19:35;96950.27;;;0.27;84.60
61359;BME280;47228;46.762;23.598;2023-04-05T02:22:12;96949.06;;;0.32;84.50
61359;BME280;47228;46.762;23.598;2023-04-05T02:24:40;96947.24;;;0.36;84.51
61359;BME280;47228;46.762;23.598;2023-04-05T02:27:09;96949.27;;;0.35;83.96
61359;BME280;47228;46.762;23.598;2023-04-05T02:29:37;96949.55;;;0.32;84.05
61359;BME280;47228;46.762;23.598;2023-04-05T02:32:05;96947.48;;;0.31;83.82
61359;BME280;47228;46.762;23.598;2023-04-05T02:34:33;96948.31;;;0.29;83.73
61359;BME280;47228;46.762;23.598;2023-04-05T02:37:02;96950.78;;;0.29;83.84
61359;BME280;47228;46.762;23.598;2023-04-05T02:39:30;96954.16;;;0.26;83.58
61359;BME280;47228;46.762;23.598;2023-04-05T02:42:00;96957.14;;;0.24;83.59
61359;BME280;47228;46.762;23.598;2023-04-05T02:44:29;96957.30;;;0.24;84.07
61359;BME280;47228;46.762;23.598;2023-04-05T02:46:57;96951.13;;;0.27;84.08
61359;BME280;47228;46.762;23.598;2023-04-05T02:49:25;96956.15;;;0.29;84.05
61359;BME280;47228;46.762;23.598;2023-04-05T02:51:53;96952.83;;;0.31;83.92
61359;BME280;47228;46.762;23.598;2023-04-05T02:54:22;96953.75;;;0.29;83.74
61359;BME280;47228;46.762;23.598;2023-04-05T02:56:50;96951.84;;;0.27;83.51
61359;BME280;47228;46.762;23.598;2023-04-05T02:59:21;96945.63;;;0.22;82.86
61359;BME280;47228;46.762;23.598;2023-04-05T03:01:49;96945.23;;;0.19;82.93
61359;BME280;47228;46.762;23.598;2023-04-05T03:04:17;96941.70;;;0.18;83.23
61359;BME280;47228;46.762;23.598;2023-04-05T03:06:45;96938.90;;;0.20;84.08
61359;BME280;47228;46.762;23.598;2023-04-05T03:09:16;96937.65;;;0.24;84.15
61359;BME280;47228;46.762;23.598;2023-04-05T03:11:44;96933.41;;;0.28;83.78
61359;BME280;47228;46.762;23.598;2023-04-05T03:14:12;96933.35;;;0.29;83.49
61359;BME280;47228;46.762;23.598;2023-04-05T03:16:40;96931.83;;;0.27;83.25
61359;BME280;47228;46.762;23.598;2023-04-05T03:19:08;96933.40;;;0.27;83.47
61359;BME280;47228;46.762;23.598;2023-04-05T03:21:36;96932.21;;;0.26;83.50
61359;BME280;47228;46.762;23.598;2023-04-05T03:24:05;96933.69;;;0.23;83.11
61359;BME280;47228;46.762;23.598;2023-04-05T03:26:33;96936.24;;;0.18;82.80
61359;BME280;47228;46.762;23.598;2023-04-05T03:29:01;96938.14;;;0.15;83.14
61359;BME280;47228;46.762;23.598;2023-04-05T03:31:29;96940.08;;;0.13;83.22
61359;BME280;47228;46.762;23.598;2023-04-05T03:33:57;96937.20;;;0.10;83.10
61359;BME280;47228;46.762;23.598;2023-04-05T03:36:25;96941.73;;;0.05;83.05
61359;BME280;47228;46.762;23.598;2023-04-05T03:38:57;96944.19;;;0.01;83.36
61359;BME280;47228;46.762;23.598;2023-04-05T03:41:25;96947.16;;;-0.02;83.59
61359;BME280;47228;46.762;23.598;2023-04-05T03:43:53;96947.32;;;-0.03;83.74
61359;BME280;47228;46.762;23.598;2023-04-05T03:46:21;96948.04;;;-0.03;83.89
61359;BME280;47228;46.762;23.598;2023-04-05T03:48:49;96948.60;;;-0.04;83.81
61359;BME280;47228;46.762;23.598;2023-04-05T03:51:17;96949.33;;;-0.06;83.76
61359;BME280;47228;46.762;23.598;2023-04-05T03:53:45;96949.85;;;-0.10;83.80
61359;BME280;47228;46.762;23.598;2023-04-05T03:56:13;96951.95;;;-0.11;84.00
61359;BME280;47228;46.762;23.598;2023-04-05T03:58:42;96955.58;;;-0.13;84.12
61359;BME280;47228;46.762;23.598;2023-04-05T04:01:10;96958.75;;;-0.16;84.14
61359;BME280;47228;46.762;23.598;2023-04-05T04:03:38;96960.48;;;-0.17;84.49
61359;BME280;47228;46.762;23.598;2023-04-05T04:06:07;96960.35;;;-0.17;84.69
61359;BME280;47228;46.762;23.598;2023-04-05T04:08:35;96964.20;;;-0.18;84.45
61359;BME280;47228;46.762;23.598;2023-04-05T04:11:02;96966.52;;;-0.19;84.61
61359;BME280;47228;46.762;23.598;2023-04-05T04:13:31;96964.66;;;-0.19;84.45
61359;BME280;47228;46.762;23.598;2023-04-05T04:15:59;96966.34;;;-0.18;84.32
61359;BME280;47228;46.762;23.598;2023-04-05T04:18:27;96964.71;;;-0.18;84.62
61359;BME280;47228;46.762;23.598;2023-04-05T04:20:55;96964.06;;;-0.17;85.02
61359;BME280;47228;46.762;23.598;2023-04-05T04:23:23;96961.84;;;-0.15;84.97
61359;BME280;47228;46.762;23.598;2023-04-05T04:25:51;96960.67;;;-0.14;84.94
61359;BME280;47228;46.762;23.598;2023-04-05T04:28:21;96964.54;;;-0.12;84.91
61359;BME280;47228;46.762;23.598;2023-04-05T04:30:51;96966.77;;;-0.10;85.30
61359;BME280;47228;46.762;23.598;2023-04-05T04:33:19;96970.40;;;-0.08;85.03
61359;BME280;47228;46.762;23.598;2023-04-05T04:35:47;96968.06;;;-0.07;84.87
61359;BME280;47228;46.762;23.598;2023-04-05T04:38:15;96965.39;;;-0.06;84.83
61359;BME280;47228;46.762;23.598;2023-04-05T04:40:47;96962.75;;;-0.06;84.82
61359;BME280;47228;46.762;23.598;2023-04-05T04:43:17;96963.21;;;-0.05;84.98
61359;BME280;47228;46.762;23.598;2023-04-05T04:45:46;96964.14;;;-0.04;85.27
61359;BME280;47228;46.762;23.598;2023-04-05T04:48:15;96965.70;;;-0.02;84.93
61359;BME280;47228;46.762;23.598;2023-04-05T04:50:44;96963.42;;;-0.02;84.84
61359;BME280;47228;46.762;23.598;2023-04-05T04:53:13;96966.30;;;-0.01;84.92
61359;BME280;47228;46.762;23.598;2023-04-05T04:55:44;96962.97;;;0.01;85.05
61359;BME280;47228;46.762;23.598;2023-04-05T04:58:12;96962.13;;;0.02;84.73
61359;BME280;47228;46.762;23.598;2023-04-05T05:00:41;96963.87;;;0.06;84.74
61359;BME280;47228;46.762;23.598;2023-04-05T05:03:12;96966.79;;;0.07;84.42
61359;BME280;47228;46.762;23.598;2023-04-05T05:05:44;96967.33;;;0.08;84.37
61359;BME280;47228;46.762;23.598;2023-04-05T05:08:12;96966.82;;;0.10;84.21
61359;BME280;47228;46.762;23.598;2023-04-05T05:10:41;96969.66;;;0.13;84.22
61359;BME280;47228;46.762;23.598;2023-04-05T05:13:09;96966.07;;;0.16;83.80
61359;BME280;47228;46.762;23.598;2023-04-05T05:15:39;96969.67;;;0.20;83.81
61359;BME280;47228;46.762;23.598;2023-04-05T05:18:08;96973.20;;;0.26;84.15
61359;BME280;47228;46.762;23.598;2023-04-05T05:20:37;96973.08;;;0.31;84.06
61359;BME280;47228;46.762;23.598;2023-04-05T05:23:05;96972.27;;;0.34;84.32
61359;BME280;47228;46.762;23.598;2023-04-05T05:25:33;96973.86;;;0.37;83.98
61359;BME280;47228;46.762;23.598;2023-04-05T05:28:01;96973.45;;;0.41;83.64
61359;BME280;47228;46.762;23.598;2023-04-05T05:30:29;96972.15;;;0.46;83.70
61359;BME280;47228;46.762;23.598;2023-04-05T05:32:57;96968.55;;;0.49;83.35
61359;BME280;47228;46.762;23.598;2023-04-05T05:35:25;96968.23;;;0.50;82.79
61359;BME280;47228;46.762;23.598;2023-04-05T05:37:54;96971.89;;;0.54;83.12
61359;BME280;47228;46.762;23.598;2023-04-05T05:40:22;96973.86;;;0.59;82.83
61359;BME280;47228;46.762;23.598;2023-04-05T05:42:53;96974.66;;;0.63;82.39
61359;BME280;47228;46.762;23.598;2023-04-05T05:45:21;96975.61;;;0.66;82.50
61359;BME280;47228;46.762;23.598;2023-04-05T05:47:49;96975.16;;;0.69;82.53
61359;BME280;47228;46.762;23.598;2023-04-05T05:50:17;96974.17;;;0.74;82.57
61359;BME280;47228;46.762;23.598;2023-04-05T05:52:47;96976.80;;;0.77;82.30
61359;BME280;47228;46.762;23.598;2023-04-05T05:55:15;96975.41;;;0.77;81.90
61359;BME280;47228;46.762;23.598;2023-04-05T05:57:43;96977.39;;;0.76;81.44
61359;BME280;47228;46.762;23.598;2023-04-05T06:00:12;96977.88;;;0.75;81.75
61359;BME280;47228;46.762;23.598;2023-04-05T06:02:41;96975.52;;;0.78;82.26
61359;BME280;47228;46.762;23.598;2023-04-05T06:05:09;96972.98;;;0.81;82.27
61359;BME280;47228;46.762;23.598;2023-04-05T06:07:37;96972.45;;;0.81;81.87
61359;BME280;47228;46.762;23.598;2023-04-05T06:10:06;96973.05;;;0.82;81.77
61359;BME280;47228;46.762;23.598;2023-04-05T06:12:34;96973.58;;;0.82;81.25
61359;BME280;47228;46.762;23.598;2023-04-05T06:15:02;96970.03;;;0.81;81.15
61359;BME280;47228;46.762;23.598;2023-04-05T06:17:30;96973.63;;;0.81;81.26
61359;BME280;47228;46.762;23.598;2023-04-05T06:20:00;96977.77;;;0.83;81.62
61359;BME280;47228;46.762;23.598;2023-04-05T06:22:29;96983.42;;;0.84;81.07
61359;BME280;47228;46.762;23.598;2023-04-05T06:24:57;96985.84;;;0.84;80.95
61359;BME280;47228;46.762;23.598;2023-04-05T06:27:25;96987.64;;;0.87;81.60
61359;BME280;47228;46.762;23.598;2023-04-05T06:29:53;96990.39;;;0.92;81.44
61359;BME280;47228;46.762;23.598;2023-04-05T06:32:22;96991.77;;;0.96;80.94
61359;BME280;47228;46.762;23.598;2023-04-05T06:34:50;96991.65;;;0.97;80.40
61359;BME280;47228;46.762;23.598;2023-04-05T06:37:18;96995.79;;;1.03;81.26
61359;BME280;47228;46.762;23.598;2023-04-05T06:39:46;96999.96;;;1.10;81.54
61359;BME280;47228;46.762;23.598;2023-04-05T06:42:13;96995.23;;;1.17;81.67
61359;BME280;47228;46.762;23.598;2023-04-05T06:44:42;96994.79;;;1.24;80.97
61359;BME280;47228;46.762;23.598;2023-04-05T06:47:10;96999.55;;;1.27;80.70
61359;BME280;47228;46.762;23.598;2023-04-05T06:49:37;97000.48;;;1.30;80.28
61359;BME280;47228;46.762;23.598;2023-04-05T06:52:05;97001.06;;;1.33;80.10
61359;BME280;47228;46.762;23.598;2023-04-05T06:54:36;96999.84;;;1.36;79.24
61359;BME280;47228;46.762;23.598;2023-04-05T06:57:04;96999.08;;;1.34;78.26
61359;BME280;47228;46.762;23.598;2023-04-05T06:59:32;96998.48;;;1.34;78.71
61359;BME280;47228;46.762;23.598;2023-04-05T07:02:00;97001.57;;;1.40;78.91
61359;BME280;47228;46.762;23.598;2023-04-05T07:04:29;97003.55;;;1.43;78.25
61359;BME280;47228;46.762;23.598;2023-04-05T07:07:02;97004.45;;;1.41;77.71
61359;BME280;47228;46.762;23.598;2023-04-05T07:09:31;97005.09;;;1.43;78.49
61359;BME280;47228;46.762;23.598;2023-04-05T07:11:59;97007.02;;;1.47;77.88
61359;BME280;47228;46.762;23.598;2023-04-05T07:14:29;97008.61;;;1.50;78.31
61359;BME280;47228;46.762;23.598;2023-04-05T07:16:58;97005.70;;;1.55;78.26
61359;BME280;47228;46.762;23.598;2023-04-05T07:19:26;97005.85;;;1.62;78.52
61359;BME280;47228;46.762;23.598;2023-04-05T07:21:55;97008.62;;;1.71;78.78
61359;BME280;47228;46.762;23.598;2023-04-05T07:24:23;97008.02;;;1.81;78.75
61359;BME280;47228;46.762;23.598;2023-04-05T07:26:52;97005.70;;;1.86;77.60
61359;BME280;47228;46.762;23.598;2023-04-05T07:29:19;97007.27;;;1.88;76.65
61359;BME280;47228;46.762;23.598;2023-04-05T07:31:47;97008.16;;;1.89;76.67
61359;BME280;47228;46.762;23.598;2023-04-05T07:34:19;97011.08;;;1.92;76.54
61359;BME280;47228;46.762;23.598;2023-04-05T07:36:47;97004.16;;;1.89;75.80
61359;BME280;47228;46.762;23.598;2023-04-05T07:39:17;97000.41;;;1.92;76.05
61359;BME280;47228;46.762;23.598;2023-04-05T07:41:45;97001.23;;;1.98;76.42
61359;BME280;47228;46.762;23.598;2023-04-05T07:44:13;97005.02;;;2.04;76.20
61359;BME280;47228;46.762;23.598;2023-04-05T07:46:41;97005.92;;;2.10;76.32
61359;BME280;47228;46.762;23.598;2023-04-05T07:49:15;97005.14;;;2.14;75.69
61359;BME280;47228;46.762;23.598;2023-04-05T07:51:43;97003.89;;;2.18;75.70
61359;BME280;47228;46.762;23.598;2023-04-05T07:54:11;97005.60;;;2.24;75.45
61359;BME280;47228;46.762;23.598;2023-04-05T07:56:39;97011.89;;;2.34;75.96
61359;BME280;47228;46.762;23.598;2023-04-05T07:59:07;97012.19;;;2.44;76.46
61359;BME280;47228;46.762;23.598;2023-04-05T08:01:35;97012.44;;;2.52;75.81
61359;BME280;47228;46.762;23.598;2023-04-05T08:04:03;97014.25;;;2.58;75.85
61359;BME280;47228;46.762;23.598;2023-04-05T08:06:31;97017.55;;;2.59;74.51
61359;BME280;47228;46.762;23.598;2023-04-05T08:08:59;97014.94;;;2.55;74.76
61359;BME280;47228;46.762;23.598;2023-04-05T08:11:27;97012.51;;;2.53;75.21
61359;BME280;47228;46.762;23.598;2023-04-05T08:13:55;97011.67;;;2.51;75.44
61359;BME280;47228;46.762;23.598;2023-04-05T08:16:23;97011.88;;;2.51;75.92
61359;BME280;47228;46.762;23.598;2023-04-05T08:18:51;97015.71;;;2.51;75.77
61359;BME280;47228;46.762;23.598;2023-04-05T08:21:19;97016.68;;;2.52;75.70
61359;BME280;47228;46.762;23.598;2023-04-05T08:23:48;97018.27;;;2.50;75.44
61359;BME280;47228;46.762;23.598;2023-04-05T08:26:17;97018.56;;;2.45;75.66
61359;BME280;47228;46.762;23.598;2023-04-05T08:28:45;97017.56;;;2.43;75.70
61359;BME280;47228;46.762;23.598;2023-04-05T08:31:13;97021.70;;;2.44;76.48
61359;BME280;47228;46.762;23.598;2023-04-05T08:33:41;97017.55;;;2.47;76.40
61359;BME280;47228;46.762;23.598;2023-04-05T08:36:09;97019.27;;;2.45;76.32
61359;BME280;47228;46.762;23.598;2023-04-05T08:38:38;97017.30;;;2.44;76.51
61359;BME280;47228;46.762;23.598;2023-04-05T08:41:27;97018.64;;;2.43;75.91
61359;BME280;47228;46.762;23.598;2023-04-05T08:44:01;97021.27;;;2.45;76.57
61359;BME280;47228;46.762;23.598;2023-04-05T08:46:33;97024.61;;;2.46;76.43
61359;BME280;47228;46.762;23.598;2023-04-05T08:49:05;97021.47;;;2.48;76.62
61359;BME280;47228;46.762;23.598;2023-04-05T08:51:38;97023.17;;;2.48;76.35
61359;BME280;47228;46.762;23.598;2023-04-05T08:54:06;97025.02;;;2.52;76.52
61359;BME280;47228;46.762;23.598;2023-04-05T08:56:34;97030.20;;;2.55;76.48
61359;BME280;47228;46.762;23.598;2023-04-05T08:59:05;97031.44;;;2.51;75.61
61359;BME280;47228;46.762;23.598;2023-04-05T09:01:42;97033.02;;;2.48;75.59
61359;BME280;47228;46.762;23.598;2023-04-05T09:04:21;97036.50;;;2.48;76.09
61359;BME280;47228;46.762;23.598;2023-04-05T09:06:51;97037.66;;;2.45;75.65
61359;BME280;47228;46.762;23.598;2023-04-05T09:09:22;97040.09;;;2.47;76.31
61359;BME280;47228;46.762;23.598;2023-04-05T09:11:51;97043.97;;;2.53;76.34
61359;BME280;47228;46.762;23.598;2023-04-05T09:14:19;97045.25;;;2.56;76.11
61359;BME280;47228;46.762;23.598;2023-04-05T09:16:48;97046.16;;;2.56;76.11
61359;BME280;47228;46.762;23.598;2023-04-05T09:19:16;97045.13;;;2.57;76.25
61359;BME280;47228;46.762;23.598;2023-04-05T09:22:06;97044.02;;;2.60;75.84
61359;BME280;47228;46.762;23.598;2023-04-05T09:24:35;97048.66;;;2.57;75.84
61359;BME280;47228;46.762;23.598;2023-04-05T09:27:08;97047.88;;;2.59;76.24
61359;BME280;47228;46.762;23.598;2023-04-05T09:29:38;97048.27;;;2.66;77.06
61359;BME280;47228;46.762;23.598;2023-04-05T09:32:09;97050.26;;;2.76;76.87
61359;BME280;47228;46.762;23.598;2023-04-05T09:34:38;97052.65;;;2.81;76.44
61359;BME280;47228;46.762;23.598;2023-04-05T09:37:17;97052.39;;;2.84;76.14
61359;BME280;47228;46.762;23.598;2023-04-05T09:39:48;97052.87;;;2.82;76.18
61359;BME280;47228;46.762;23.598;2023-04-05T09:42:18;97054.29;;;2.82;75.53
61359;BME280;47228;46.762;23.598;2023-04-05T09:47:20;97053.64;;;2.68;74.27
61359;BME280;47228;46.762;23.598;2023-04-05T09:49:49;97054.30;;;2.58;74.53
61359;BME280;47228;46.762;23.598;2023-04-05T09:52:21;97054.76;;;2.54;75.02
61359;BME280;47228;46.762;23.598;2023-04-05T09:54:52;97062.67;;;2.48;75.03
61359;BME280;47228;46.762;23.598;2023-04-05T09:57:24;97064.27;;;2.48;74.98
61359;BME280;47228;46.762;23.598;2023-04-05T09:59:56;97065.70;;;2.51;75.43
61359;BME280;47228;46.762;23.598;2023-04-05T10:02:24;97062.60;;;2.58;75.40
61359;BME280;47228;46.762;23.598;2023-04-05T10:05:10;97060.42;;;2.62;74.65
61359;BME280;47228;46.762;23.598;2023-04-05T10:07:44;97058.96;;;2.69;74.82
61359;BME280;47228;46.762;23.598;2023-04-05T10:10:12;97059.10;;;2.73;74.53
61359;BME280;47228;46.762;23.598;2023-04-05T10:12:44;97061.30;;;2.80;75.10
61359;BME280;47228;46.762;23.598;2023-04-05T10:15:14;97063.52;;;2.84;74.26
61359;BME280;47228;46.762;23.598;2023-04-05T10:18:00;97071.39;;;2.86;74.94
61359;BME280;47228;46.762;23.598;2023-04-05T10:20:32;97070.86;;;2.88;74.57
61359;BME280;47228;46.762;23.598;2023-04-05T10:31:28;97071.70;;;2.81;75.10
61359;BME280;47228;46.762;23.598;2023-04-05T10:34:07;97072.40;;;2.86;75.15
61359;BME280;47228;46.762;23.598;2023-04-05T10:39:33;97068.73;;;2.85;73.83
61359;BME280;47228;46.762;23.598;2023-04-05T10:42:42;97072.67;;;2.89;74.35
61359;BME280;47228;46.762;23.598;2023-04-05T10:45:05;97072.59;;;2.93;74.52
61359;BME280;47228;46.762;23.598;2023-04-05T10:47:42;97073.85;;;3.05;75.57
61359;BME280;47228;46.762;23.598;2023-04-05T10:50:19;97069.92;;;3.17;74.77
61359;BME280;47228;46.762;23.598;2023-04-05T10:52:48;97068.01;;;3.24;73.84
61359;BME280;47228;46.762;23.598;2023-04-05T10:55:18;97069.56;;;3.24;72.79
61359;BME280;47228;46.762;23.598;2023-04-05T10:57:47;97069.20;;;3.26;73.18
61359;BME280;47228;46.762;23.598;2023-04-05T11:00:17;97067.36;;;3.30;72.62
61359;BME280;47228;46.762;23.598;2023-04-05T11:02:47;97065.83;;;3.38;73.05
61359;BME280;47228;46.762;23.598;2023-04-05T11:07:59;97067.62;;;3.57;71.97
61359;BME280;47228;46.762;23.598;2023-04-05T11:10:29;97070.34;;;3.60;71.51
61359;BME280;47228;46.762;23.598;2023-04-05T11:18:07;97073.61;;;3.80;71.82
61359;BME280;47228;46.762;23.598;2023-04-05T11:29:07;97075.42;;;3.89;71.91
61359;BME280;47228;46.762;23.598;2023-04-05T11:31:35;97074.95;;;3.95;71.76
61359;BME280;47228;46.762;23.598;2023-04-05T11:34:04;97075.98;;;3.98;71.24
61359;BME280;47228;46.762;23.598;2023-04-05T11:36:43;97070.32;;;4.04;71.87
61359;BME280;47228;46.762;23.598;2023-04-05T11:44:22;97067.36;;;4.04;70.31
61359;BME280;47228;46.762;23.598;2023-04-05T11:46:53;97072.69;;;4.05;70.80
61359;BME280;47228;46.762;23.598;2023-04-05T11:49:23;97065.05;;;4.12;71.04
61359;BME280;47228;46.762;23.598;2023-04-05T11:51:52;97067.13;;;4.17;70.81
61359;BME280;47228;46.762;23.598;2023-04-05T11:54:28;97063.79;;;4.22;70.79
61359;BME280;47228;46.762;23.598;2023-04-05T11:56:56;97067.26;;;4.27;70.51
61359;BME280;47228;46.762;23.598;2023-04-05T11:59:42;97065.23;;;4.27;69.98
61359;BME280;47228;46.762;23.598;2023-04-05T12:02:11;97064.27;;;4.24;70.19
61359;BME280;47228;46.762;23.598;2023-04-05T12:04:39;97062.23;;;4.25;70.58
61359;BME280;47228;46.762;23.598;2023-04-05T12:07:16;97066.73;;;4.27;70.70
61359;BME280;47228;46.762;23.598;2023-04-05T12:10:04;97066.11;;;4.29;70.40
61359;BME280;47228;46.762;23.598;2023-04-05T12:12:39;97067.30;;;4.29;71.08
61359;BME280;47228;46.762;23.598;2023-04-05T12:15:11;97070.65;;;4.27;70.27
61359;BME280;47228;46.762;23.598;2023-04-05T12:17:49;97067.99;;;4.24;70.71
61359;BME280;47228;46.762;23.598;2023-04-05T12:20:21;97064.96;;;4.26;70.93
61359;BME280;47228;46.762;23.598;2023-04-05T12:22:52;97061.13;;;4.26;70.72
61359;BME280;47228;46.762;23.598;2023-04-05T12:25:21;97061.15;;;4.25;70.39
61359;BME280;47228;46.762;23.598;2023-04-05T12:27:50;97064.42;;;4.23;70.13
61359;BME280;47228;46.762;23.598;2023-04-05T12:30:22;97064.81;;;4.21;70.57
61359;BME280;47228;46.762;23.598;2023-04-05T12:32:54;97061.93;;;4.20;70.02
61359;BME280;47228;46.762;23.598;2023-04-05T12:35:27;97060.52;;;4.10;69.35
61359;BME280;47228;46.762;23.598;2023-04-05T12:38:00;97062.20;;;4.03;69.57
61359;BME280;47228;46.762;23.598;2023-04-05T12:40:33;97064.13;;;3.96;69.88
61359;BME280;47228;46.762;23.598;2023-04-05T12:43:07;97062.55;;;3.91;69.51
61359;BME280;47228;46.762;23.598;2023-04-05T12:45:36;97057.67;;;3.80;68.99
61359;BME280;47228;46.762;23.598;2023-04-05T12:48:11;97055.09;;;3.69;69.88
61359;BME280;47228;46.762;23.598;2023-04-05T12:50:47;97051.02;;;3.68;70.53
61359;BME280;47228;46.762;23.598;2023-04-05T12:55:52;97051.36;;;3.77;70.72
61359;BME280;47228;46.762;23.598;2023-04-05T12:58:22;97050.14;;;3.78;70.42
61359;BME280;47228;46.762;23.598;2023-04-05T13:00:59;97046.05;;;3.81;70.88
61359;BME280;47228;46.762;23.598;2023-04-05T13:03:27;97046.27;;;3.87;71.39
61359;BME280;47228;46.762;23.598;2023-04-05T13:05:55;97042.80;;;3.91;70.84
61359;BME280;47228;46.762;23.598;2023-04-05T13:08:25;97042.92;;;3.93;70.91
61359;BME280;47228;46.762;23.598;2023-04-05T13:10:54;97037.55;;;3.97;71.04
61359;BME280;47228;46.762;23.598;2023-04-05T13:13:24;97039.94;;;3.99;71.05
61359;BME280;47228;46.762;23.598;2023-04-05T13:15:53;97037.65;;;4.01;70.91
61359;BME280;47228;46.762;23.598;2023-04-05T13:18:21;97035.77;;;4.01;70.58
61359;BME280;47228;46.762;23.598;2023-04-05T13:20:49;97036.63;;;3.99;70.28
61359;BME280;47228;46.762;23.598;2023-04-05T13:23:17;97038.73;;;3.93;69.93
61359;BME280;47228;46.762;23.598;2023-04-05T13:25:45;97036.63;;;3.92;70.73
61359;BME280;47228;46.762;23.598;2023-04-05T13:28:13;97035.98;;;3.91;70.42
61359;BME280;47228;46.762;23.598;2023-04-05T13:30:41;97037.66;;;3.90;70.20
61359;BME280;47228;46.762;23.598;2023-04-05T13:33:09;97034.03;;;3.93;70.42
61359;BME280;47228;46.762;23.598;2023-04-05T13:35:37;97034.57;;;3.96;70.43
61359;BME280;47228;46.762;23.598;2023-04-05T13:38:06;97035.48;;;3.95;69.79
61359;BME280;47228;46.762;23.598;2023-04-05T13:40:34;97033.46;;;3.93;69.62
61359;BME280;47228;46.762;23.598;2023-04-05T13:43:02;97034.54;;;3.86;69.10
61359;BME280;47228;46.762;23.598;2023-04-05T13:45:30;97031.52;;;3.80;70.22
61359;BME280;47228;46.762;23.598;2023-04-05T13:47:59;97029.48;;;3.82;70.40
61359;BME280;47228;46.762;23.598;2023-04-05T13:50:29;97024.98;;;3.81;70.03
61359;BME280;47228;46.762;23.598;2023-04-05T13:52:57;97023.15;;;3.78;69.87
61359;BME280;47228;46.762;23.598;2023-04-05T13:55:25;97022.27;;;3.79;70.11
61359;BME280;47228;46.762;23.598;2023-04-05T13:57:53;97022.53;;;3.76;70.13
61359;BME280;47228;46.762;23.598;2023-04-05T14:00:21;97028.33;;;3.74;70.12
61359;BME280;47228;46.762;23.598;2023-04-05T14:02:50;97031.56;;;3.75;70.38
61359;BME280;47228;46.762;23.598;2023-04-05T14:05:18;97031.21;;;3.75;70.51